Metsäpalo Alkaa: 24-06-2019 23:01 Päättyy: 25-06-2019 10:00 Varoitus: Metsäpalo Taso: Keltainen info button
suomi:
Metsäpalovaroitus on voimassa.

svenska:
Varning för skogsbrand gäller.

english:
A forest fire warning is in force. 


Webkamera Lisätietoa Webcam


Yksityisiä sääasemia lähellä:

Sääasema Juupajoki

Sääasema Orivesi

Sääasema Muurame

Sääasema Jyväskylä

Sääasema Vihtavuori


Löydät sääaseman tiedot myös:

Finland Weather Exchange

European Weather Network

Weather Underground

AWEKAS

Windy.com



Säätiedot lähimmiltä METAR asemilta

   
EFHA - Halli (Fin-Afb), Finland
Etäisyys asemalta: Kaakko 25 km
Päivitetty: 25.06.2019 00:20
Selkeää  
Selkeää  
   Tuuli: Luode 1.5 m/s
Tuuli: Luode 1.5 m/s
Lämpötila: 13°C
Kastepiste: 5°C
Kosteus: 59%
Ilmanpaine: 1029 hPa
Näkyvyys: Enemmän kuin 10 km
Pilvitiedot: Selkeää
EFHA 242120Z AUTO 31003KT CAVOK 13/05 Q1029
EFJY - Jyvaskyla (Mil/Civ), Finland
Etäisyys asemalta: Koillinen 75 km
Päivitetty: 25.06.2019 00:20
Selkeää  
Selkeää  
   Tuuli: Länsi 2.6 m/s
Tuuli: Länsi 2.6 m/s
Lämpötila: 9°C
Tuulen hyytävyys: 8°C
Kastepiste: 5°C
Kosteus: 76%
Ilmanpaine: 1028 hPa
Näkyvyys: Enemmän kuin 10 km
Pilvitiedot: Selkeää
EFJY 242120Z AUTO 28005KT CAVOK 09/05 Q1028
EFTP - Tampere/Pirkkala, Finland
Etäisyys asemalta: Lounas 81 km
Päivitetty: 25.06.2019 00:20
Selkeää  
Selkeää  
   Tuuli: Länsiluode 1.5 m/s
Tuuli: Länsiluode 1.5 m/s
Lämpötila: 14°C
Kastepiste: 6°C
Kosteus: 59%
Ilmanpaine: 1030 hPa
Näkyvyys: Enemmän kuin 10 km
Pilvitiedot: Selkeää
EFTP 242120Z AUTO 29003KT CAVOK 14/06 Q1030
EFSI - Seinajoki-Ilmajoki, Finland
Etäisyys asemalta: Luode 114 km
Päivitetty: 25.06.2019 00:20
Selkeää  
Selkeää  
   Tuuli: Länsi 1 m/s
Tuuli: Länsi 1 m/s
Lämpötila: 10°C
Kastepiste: 6°C
Kosteus: 76%
Ilmanpaine: 1029 hPa
Näkyvyys: Enemmän kuin 10 km
Pilvitiedot: Selkeää
EFSI 242120Z AUTO 26002KT CAVOK 10/06 Q1029
EFMI - Mikkeli, Finland
Etäisyys asemalta: Itäkaakko 147 km
Päivitetty: 25.06.2019 00:20
Selkeää  
Selkeää  
   Tuuli: Tyyntä
Tuuli: Tyyntä
Lämpötila: 9°C
Kastepiste: 9°C
Kosteus: 100%
Ilmanpaine: 1028 hPa
Näkyvyys: Enemmän kuin 10 km
Pilvitiedot: Selkeää
EFMI 242120Z AUTO 00000KT CAVOK 09/09 Q1028
EFPO - Pori (Mil/Civ), Finland
Etäisyys asemalta: Länsilounas 154 km
Päivitetty: 25.06.2019 00:20
Selkeää  
Selkeää  
   Tuuli: Länsiluode 1.5 m/s
Tuuli: Länsiluode 1.5 m/s
Lämpötila: 9°C
Tuulen hyytävyys: 8°C
Kastepiste: 8°C
Kosteus: 94%
Ilmanpaine: 1030 hPa
Näkyvyys: Enemmän kuin 10 km
Pilvitiedot: Selkeää
EFPO 242120Z AUTO 29003KT CAVOK 09/08 Q1030
EFUT - Utti (Fin-Afb), Finland
Etäisyys asemalta: Kaakko 180 km
Päivitetty: 25.06.2019 00:20
Selkeää  
Selkeää  
   Tuuli: Luode 1 m/s
Tuuli: Luode 1 m/s
Lämpötila: 14°C
Kastepiste: 10°C
Kosteus: 77%
Ilmanpaine: 1028 hPa
Näkyvyys: Enemmän kuin 10 km
Pilvitiedot: Selkeää
EFUT 242120Z AUTO 32002KT CAVOK 14/10 Q1028
EFVA - Vaasa, Finland
Etäisyys asemalta: Luode 180 km
Päivitetty: 25.06.2019 00:20
Selkeää  
Selkeää  
   Tuuli: Länsilounas 1.5 m/s
Tuuli: Länsilounas 1.5 m/s
Lämpötila: 11°C
Kastepiste: 8°C
Kosteus: 82%
Ilmanpaine: 1029 hPa
Näkyvyys: Enemmän kuin 10 km
Pilvitiedot: Selkeää
EFVA 242120Z AUTO 24003KT CAVOK 11/08 Q1029
EFHK - Helsinki/Vantaa, Finland
Etäisyys asemalta: Etelä 191 km
Päivitetty: 25.06.2019 00:20
Selkeää  
Selkeää  
   Tuuli: Länsiluode 3.1 m/s
Tuuli: Länsiluode 3.1 m/s
Lämpötila: 12°C
Kastepiste: 6°C
Kosteus: 67%
Ilmanpaine: 1029 hPa
Näkyvyys: Enemmän kuin 10 km
Pilvitiedot: Selkeää
EFHK 242120Z 29006KT CAVOK 12/06 Q1029 NOSIG

Alkuperäinen skripti  Saratoga-weather.org Sovitettu myös templatelle  Weerstation Leuven

Laitteet joita käytämme:

Sääasema
Davis VP2

Sääasemaohjelma
Cumulus

Sääaseman palvelin
HP ProBook 6460b

Palveluntarjoaja
Radicenter

Davis VP2

Cumulus

HP ProBook 6460b

Radicenter




Flag Counter Cumulus Top Weather Sites